sensor_id;sensor_type;location;lat;lon;timestamp;P1;durP1;ratioP1;P2;durP2;ratioP2
26391;SDS011;14572;43.120;1.178;2023-07-02T00:00:17;7.80;;;2.70;;
26391;SDS011;14572;43.120;1.178;2023-07-02T00:02:44;7.15;;;3.00;;
26391;SDS011;14572;43.120;1.178;2023-07-02T00:05:11;6.65;;;2.85;;
26391;SDS011;14572;43.120;1.178;2023-07-02T00:07:38;4.88;;;2.40;;
26391;SDS011;14572;43.120;1.178;2023-07-02T00:10:06;5.13;;;2.80;;
26391;SDS011;14572;43.120;1.178;2023-07-02T00:12:33;4.85;;;2.50;;
26391;SDS011;14572;43.120;1.178;2023-07-02T00:15:02;6.18;;;2.33;;
26391;SDS011;14572;43.120;1.178;2023-07-02T00:17:30;6.47;;;2.60;;
26391;SDS011;14572;43.120;1.178;2023-07-02T00:19:57;5.28;;;2.63;;
26391;SDS011;14572;43.120;1.178;2023-07-02T00:22:28;5.22;;;2.42;;
26391;SDS011;14572;43.120;1.178;2023-07-02T00:24:55;7.18;;;2.70;;
26391;SDS011;14572;43.120;1.178;2023-07-02T00:27:22;8.82;;;3.20;;
26391;SDS011;14572;43.120;1.178;2023-07-02T00:29:49;8.25;;;2.55;;
26391;SDS011;14572;43.120;1.178;2023-07-02T00:32:18;15.75;;;3.47;;
26391;SDS011;14572;43.120;1.178;2023-07-02T00:34:45;5.13;;;2.40;;
26391;SDS011;14572;43.120;1.178;2023-07-02T00:37:12;11.13;;;3.00;;
26391;SDS011;14572;43.120;1.178;2023-07-02T00:39:40;6.10;;;2.72;;
26391;SDS011;14572;43.120;1.178;2023-07-02T00:42:07;8.73;;;2.95;;
26391;SDS011;14572;43.120;1.178;2023-07-02T00:44:36;7.80;;;2.42;;
26391;SDS011;14572;43.120;1.178;2023-07-02T00:47:06;5.88;;;2.40;;
26391;SDS011;14572;43.120;1.178;2023-07-02T00:49:35;6.88;;;2.70;;
26391;SDS011;14572;43.120;1.178;2023-07-02T00:52:02;8.77;;;3.10;;
26391;SDS011;14572;43.120;1.178;2023-07-02T00:54:30;10.63;;;3.20;;
26391;SDS011;14572;43.120;1.178;2023-07-02T00:56:57;6.78;;;2.67;;
26391;SDS011;14572;43.120;1.178;2023-07-02T00:59:27;5.55;;;2.80;;
26391;SDS011;14572;43.120;1.178;2023-07-02T01:01:55;12.15;;;3.08;;
26391;SDS011;14572;43.120;1.178;2023-07-02T01:04:22;5.50;;;2.50;;
26391;SDS011;14572;43.120;1.178;2023-07-02T01:06:54;6.90;;;2.85;;
26391;SDS011;14572;43.120;1.178;2023-07-02T01:09:23;6.63;;;2.60;;
26391;SDS011;14572;43.120;1.178;2023-07-02T01:11:53;8.43;;;3.47;;
26391;SDS011;14572;43.120;1.178;2023-07-02T01:14:22;4.75;;;2.70;;
26391;SDS011;14572;43.120;1.178;2023-07-02T01:16:52;8.02;;;3.20;;
26391;SDS011;14572;43.120;1.178;2023-07-02T01:19:22;7.15;;;2.80;;
26391;SDS011;14572;43.120;1.178;2023-07-02T01:22:08;12.60;;;3.25;;
26391;SDS011;14572;43.120;1.178;2023-07-02T01:24:36;8.82;;;2.60;;
26391;SDS011;14572;43.120;1.178;2023-07-02T01:27:04;10.13;;;3.33;;
26391;SDS011;14572;43.120;1.178;2023-07-02T01:29:31;4.47;;;2.33;;
26391;SDS011;14572;43.120;1.178;2023-07-02T01:32:02;10.13;;;2.88;;
26391;SDS011;14572;43.120;1.178;2023-07-02T01:34:29;4.18;;;2.10;;
26391;SDS011;14572;43.120;1.178;2023-07-02T01:36:56;7.70;;;2.70;;
26391;SDS011;14572;43.120;1.178;2023-07-02T01:39:25;6.40;;;2.33;;
26391;SDS011;14572;43.120;1.178;2023-07-02T01:41:52;6.13;;;2.42;;
26391;SDS011;14572;43.120;1.178;2023-07-02T01:44:20;6.07;;;2.65;;
26391;SDS011;14572;43.120;1.178;2023-07-02T01:46:48;6.18;;;2.55;;
26391;SDS011;14572;43.120;1.178;2023-07-02T01:49:16;7.32;;;3.05;;
26391;SDS011;14572;43.120;1.178;2023-07-02T01:51:44;6.93;;;2.55;;
26391;SDS011;14572;43.120;1.178;2023-07-02T01:54:12;4.63;;;2.72;;
26391;SDS011;14572;43.120;1.178;2023-07-02T01:56:41;7.03;;;2.90;;
26391;SDS011;14572;43.120;1.178;2023-07-02T01:59:08;7.40;;;2.25;;
26391;SDS011;14572;43.120;1.178;2023-07-02T02:01:36;5.80;;;2.65;;
26391;SDS011;14572;43.120;1.178;2023-07-02T02:04:05;6.75;;;2.63;;
26391;SDS011;14572;43.120;1.178;2023-07-02T02:06:33;5.70;;;2.60;;
26391;SDS011;14572;43.120;1.178;2023-07-02T02:09:00;4.55;;;2.35;;
26391;SDS011;14572;43.120;1.178;2023-07-02T02:11:28;9.57;;;2.83;;
26391;SDS011;14572;43.120;1.178;2023-07-02T02:13:57;5.30;;;2.65;;
26391;SDS011;14572;43.120;1.178;2023-07-02T02:16:26;7.15;;;2.60;;
26391;SDS011;14572;43.120;1.178;2023-07-02T02:18:53;7.65;;;2.95;;
26391;SDS011;14572;43.120;1.178;2023-07-02T02:21:21;3.75;;;2.35;;
26391;SDS011;14572;43.120;1.178;2023-07-02T02:23:48;7.40;;;2.67;;
26391;SDS011;14572;43.120;1.178;2023-07-02T02:26:15;8.25;;;2.72;;
26391;SDS011;14572;43.120;1.178;2023-07-02T02:28:43;6.90;;;2.35;;
26391;SDS011;14572;43.120;1.178;2023-07-02T02:31:12;7.35;;;2.40;;
26391;SDS011;14572;43.120;1.178;2023-07-02T02:33:39;4.57;;;2.45;;
26391;SDS011;14572;43.120;1.178;2023-07-02T02:36:06;5.03;;;1.92;;
26391;SDS011;14572;43.120;1.178;2023-07-02T02:38:33;11.75;;;2.63;;
26391;SDS011;14572;43.120;1.178;2023-07-02T02:41:02;5.07;;;2.75;;
26391;SDS011;14572;43.120;1.178;2023-07-02T02:43:30;5.78;;;2.15;;
26391;SDS011;14572;43.120;1.178;2023-07-02T02:45:57;6.53;;;2.72;;
26391;SDS011;14572;43.120;1.178;2023-07-02T02:48:26;8.38;;;2.38;;
26391;SDS011;14572;43.120;1.178;2023-07-02T02:50:53;4.45;;;2.15;;
26391;SDS011;14572;43.120;1.178;2023-07-02T02:53:20;6.53;;;2.50;;
26391;SDS011;14572;43.120;1.178;2023-07-02T02:55:48;5.30;;;2.63;;
26391;SDS011;14572;43.120;1.178;2023-07-02T02:58:15;8.55;;;2.67;;
26391;SDS011;14572;43.120;1.178;2023-07-02T03:00:42;5.00;;;2.13;;
26391;SDS011;14572;43.120;1.178;2023-07-02T03:03:11;6.47;;;2.60;;
26391;SDS011;14572;43.120;1.178;2023-07-02T03:05:40;4.60;;;2.25;;
26391;SDS011;14572;43.120;1.178;2023-07-02T03:08:09;6.28;;;2.08;;
26391;SDS011;14572;43.120;1.178;2023-07-02T03:14:04;7.93;;;2.65;;
26391;SDS011;14572;43.120;1.178;2023-07-02T03:16:31;8.32;;;2.28;;
26391;SDS011;14572;43.120;1.178;2023-07-02T03:18:58;8.18;;;3.00;;
26391;SDS011;14572;43.120;1.178;2023-07-02T03:21:28;8.23;;;2.63;;
26391;SDS011;14572;43.120;1.178;2023-07-02T03:23:57;7.80;;;2.65;;
26391;SDS011;14572;43.120;1.178;2023-07-02T03:26:24;6.40;;;2.78;;
26391;SDS011;14572;43.120;1.178;2023-07-02T03:28:51;8.95;;;2.42;;
26391;SDS011;14572;43.120;1.178;2023-07-02T03:31:19;7.85;;;2.67;;
26391;SDS011;14572;43.120;1.178;2023-07-02T03:33:46;7.15;;;2.28;;
26391;SDS011;14572;43.120;1.178;2023-07-02T03:36:13;5.60;;;2.13;;
26391;SDS011;14572;43.120;1.178;2023-07-02T03:38:42;5.65;;;2.35;;
26391;SDS011;14572;43.120;1.178;2023-07-02T03:41:09;5.43;;;2.47;;
26391;SDS011;14572;43.120;1.178;2023-07-02T03:43:36;8.63;;;2.63;;
26391;SDS011;14572;43.120;1.178;2023-07-02T03:46:03;4.75;;;2.25;;
26391;SDS011;14572;43.120;1.178;2023-07-02T03:48:30;7.15;;;2.10;;
26391;SDS011;14572;43.120;1.178;2023-07-02T03:50:57;9.45;;;2.33;;
26391;SDS011;14572;43.120;1.178;2023-07-02T03:53:26;4.72;;;2.33;;
26391;SDS011;14572;43.120;1.178;2023-07-02T03:55:55;9.82;;;3.20;;
26391;SDS011;14572;43.120;1.178;2023-07-02T03:58:22;4.82;;;2.20;;
26391;SDS011;14572;43.120;1.178;2023-07-02T04:00:49;9.65;;;3.08;;
26391;SDS011;14572;43.120;1.178;2023-07-02T04:03:16;10.38;;;2.50;;
26391;SDS011;14572;43.120;1.178;2023-07-02T04:05:44;9.70;;;2.40;;
26391;SDS011;14572;43.120;1.178;2023-07-02T04:08:11;8.90;;;2.80;;
26391;SDS011;14572;43.120;1.178;2023-07-02T04:10:38;8.32;;;2.30;;
26391;SDS011;14572;43.120;1.178;2023-07-02T04:13:07;5.82;;;2.50;;
26391;SDS011;14572;43.120;1.178;2023-07-02T04:15:34;10.55;;;2.72;;
26391;SDS011;14572;43.120;1.178;2023-07-02T04:18:02;6.82;;;2.38;;
26391;SDS011;14572;43.120;1.178;2023-07-02T04:20:29;7.75;;;2.88;;
26391;SDS011;14572;43.120;1.178;2023-07-02T04:22:56;4.70;;;2.30;;
26391;SDS011;14572;43.120;1.178;2023-07-02T04:25:23;7.43;;;2.63;;
26391;SDS011;14572;43.120;1.178;2023-07-02T04:27:51;5.30;;;2.35;;
26391;SDS011;14572;43.120;1.178;2023-07-02T04:30:41;5.75;;;2.83;;
26391;SDS011;14572;43.120;1.178;2023-07-02T04:33:08;8.07;;;2.83;;
26391;SDS011;14572;43.120;1.178;2023-07-02T04:35:39;3.28;;;2.35;;
26391;SDS011;14572;43.120;1.178;2023-07-02T04:38:06;5.75;;;2.38;;
26391;SDS011;14572;43.120;1.178;2023-07-02T04:40:33;9.55;;;2.67;;
26391;SDS011;14572;43.120;1.178;2023-07-02T04:43:00;6.63;;;2.40;;
26391;SDS011;14572;43.120;1.178;2023-07-02T04:45:29;5.10;;;2.65;;
26391;SDS011;14572;43.120;1.178;2023-07-02T04:48:03;4.80;;;2.53;;
26391;SDS011;14572;43.120;1.178;2023-07-02T04:50:30;9.07;;;2.70;;
26391;SDS011;14572;43.120;1.178;2023-07-02T04:52:58;6.85;;;2.65;;
26391;SDS011;14572;43.120;1.178;2023-07-02T04:55:25;8.68;;;2.55;;
26391;SDS011;14572;43.120;1.178;2023-07-02T04:57:52;5.05;;;2.17;;
26391;SDS011;14572;43.120;1.178;2023-07-02T05:00:19;5.53;;;2.28;;
26391;SDS011;14572;43.120;1.178;2023-07-02T05:02:47;5.85;;;2.20;;
26391;SDS011;14572;43.120;1.178;2023-07-02T05:05:17;5.88;;;2.53;;
26391;SDS011;14572;43.120;1.178;2023-07-02T05:07:44;15.38;;;2.85;;
26391;SDS011;14572;43.120;1.178;2023-07-02T05:10:13;4.50;;;2.08;;
26391;SDS011;14572;43.120;1.178;2023-07-02T05:12:40;8.25;;;2.30;;
26391;SDS011;14572;43.120;1.178;2023-07-02T05:15:08;4.82;;;2.60;;
26391;SDS011;14572;43.120;1.178;2023-07-02T05:17:37;6.25;;;2.45;;
26391;SDS011;14572;43.120;1.178;2023-07-02T05:20:21;5.28;;;2.50;;
26391;SDS011;14572;43.120;1.178;2023-07-02T05:22:48;4.18;;;2.35;;
26391;SDS011;14572;43.120;1.178;2023-07-02T05:25:15;6.28;;;2.38;;
26391;SDS011;14572;43.120;1.178;2023-07-02T05:27:42;4.93;;;2.75;;
26391;SDS011;14572;43.120;1.178;2023-07-02T05:30:10;8.52;;;2.58;;
26391;SDS011;14572;43.120;1.178;2023-07-02T05:32:38;4.95;;;2.22;;
26391;SDS011;14572;43.120;1.178;2023-07-02T05:35:05;10.57;;;3.20;;
26391;SDS011;14572;43.120;1.178;2023-07-02T05:37:34;7.57;;;2.20;;
26391;SDS011;14572;43.120;1.178;2023-07-02T05:40:01;6.38;;;2.20;;
26391;SDS011;14572;43.120;1.178;2023-07-02T05:42:29;3.60;;;1.80;;
26391;SDS011;14572;43.120;1.178;2023-07-02T05:44:56;5.55;;;2.05;;
26391;SDS011;14572;43.120;1.178;2023-07-02T05:47:23;8.00;;;2.50;;
26391;SDS011;14572;43.120;1.178;2023-07-02T05:49:50;6.18;;;2.25;;
26391;SDS011;14572;43.120;1.178;2023-07-02T05:52:17;4.45;;;2.05;;
26391;SDS011;14572;43.120;1.178;2023-07-02T05:54:46;2.92;;;1.88;;
26391;SDS011;14572;43.120;1.178;2023-07-02T05:57:13;4.57;;;2.00;;
26391;SDS011;14572;43.120;1.178;2023-07-02T05:59:42;4.57;;;1.95;;
26391;SDS011;14572;43.120;1.178;2023-07-02T06:02:10;5.55;;;2.10;;
26391;SDS011;14572;43.120;1.178;2023-07-02T06:04:37;4.93;;;2.03;;
26391;SDS011;14572;43.120;1.178;2023-07-02T06:07:04;4.72;;;2.15;;
26391;SDS011;14572;43.120;1.178;2023-07-02T06:09:31;4.40;;;2.13;;
26391;SDS011;14572;43.120;1.178;2023-07-02T06:12:00;5.75;;;1.92;;
26391;SDS011;14572;43.120;1.178;2023-07-02T06:14:27;5.05;;;1.73;;
26391;SDS011;14572;43.120;1.178;2023-07-02T06:16:55;3.60;;;1.70;;
26391;SDS011;14572;43.120;1.178;2023-07-02T06:19:24;3.05;;;1.65;;
26391;SDS011;14572;43.120;1.178;2023-07-02T06:21:51;3.55;;;1.80;;
26391;SDS011;14572;43.120;1.178;2023-07-02T06:24:19;4.75;;;1.73;;
26391;SDS011;14572;43.120;1.178;2023-07-02T06:26:46;3.55;;;1.80;;
26391;SDS011;14572;43.120;1.178;2023-07-02T06:29:14;3.42;;;2.13;;
26391;SDS011;14572;43.120;1.178;2023-07-02T06:31:41;4.13;;;1.88;;
26391;SDS011;14572;43.120;1.178;2023-07-02T06:34:10;2.83;;;1.60;;
26391;SDS011;14572;43.120;1.178;2023-07-02T06:36:37;4.22;;;1.80;;
26391;SDS011;14572;43.120;1.178;2023-07-02T06:39:04;3.00;;;1.52;;
26391;SDS011;14572;43.120;1.178;2023-07-02T06:41:31;2.13;;;1.23;;
26391;SDS011;14572;43.120;1.178;2023-07-02T06:43:58;3.47;;;1.70;;
26391;SDS011;14572;43.120;1.178;2023-07-02T06:46:27;2.15;;;1.40;;
26391;SDS011;14572;43.120;1.178;2023-07-02T06:48:54;4.57;;;1.38;;
26391;SDS011;14572;43.120;1.178;2023-07-02T06:51:21;1.52;;;1.23;;
26391;SDS011;14572;43.120;1.178;2023-07-02T06:53:51;2.17;;;1.50;;
26391;SDS011;14572;43.120;1.178;2023-07-02T06:56:18;1.88;;;1.50;;
26391;SDS011;14572;43.120;1.178;2023-07-02T06:58:45;2.58;;;1.40;;
26391;SDS011;14572;43.120;1.178;2023-07-02T07:01:12;2.25;;;1.40;;
26391;SDS011;14572;43.120;1.178;2023-07-02T07:03:41;2.45;;;1.40;;
26391;SDS011;14572;43.120;1.178;2023-07-02T07:06:08;2.85;;;1.52;;
26391;SDS011;14572;43.120;1.178;2023-07-02T07:08:37;3.72;;;1.30;;
26391;SDS011;14572;43.120;1.178;2023-07-02T07:11:05;2.58;;;1.40;;
26391;SDS011;14572;43.120;1.178;2023-07-02T07:13:32;1.95;;;1.35;;
26391;SDS011;14572;43.120;1.178;2023-07-02T07:15:59;2.88;;;1.30;;
26391;SDS011;14572;43.120;1.178;2023-07-02T07:18:26;2.28;;;1.35;;
26391;SDS011;14572;43.120;1.178;2023-07-02T07:20:55;2.50;;;1.08;;
26391;SDS011;14572;43.120;1.178;2023-07-02T07:23:22;3.97;;;1.25;;
26391;SDS011;14572;43.120;1.178;2023-07-02T07:25:49;1.33;;;1.10;;
26391;SDS011;14572;43.120;1.178;2023-07-02T07:28:17;4.88;;;1.10;;
26391;SDS011;14572;43.120;1.178;2023-07-02T07:30:44;2.53;;;1.00;;
26391;SDS011;14572;43.120;1.178;2023-07-02T07:33:11;2.17;;;1.10;;
26391;SDS011;14572;43.120;1.178;2023-07-02T07:35:38;1.85;;;1.60;;
26391;SDS011;14572;43.120;1.178;2023-07-02T07:38:07;1.88;;;1.23;;
26391;SDS011;14572;43.120;1.178;2023-07-02T07:40:34;1.08;;;0.90;;
26391;SDS011;14572;43.120;1.178;2023-07-02T07:43:01;2.15;;;1.30;;
26391;SDS011;14572;43.120;1.178;2023-07-02T07:45:28;1.75;;;1.13;;
26391;SDS011;14572;43.120;1.178;2023-07-02T07:47:56;1.30;;;1.20;;
26391;SDS011;14572;43.120;1.178;2023-07-02T07:50:23;1.60;;;1.27;;
26391;SDS011;14572;43.120;1.178;2023-07-02T07:52:50;1.75;;;1.10;;
26391;SDS011;14572;43.120;1.178;2023-07-02T07:55:19;1.75;;;1.20;;
26391;SDS011;14572;43.120;1.178;2023-07-02T07:57:46;1.20;;;1.10;;
26391;SDS011;14572;43.120;1.178;2023-07-02T08:00:14;1.23;;;1.13;;
26391;SDS011;14572;43.120;1.178;2023-07-02T08:02:42;0.90;;;0.90;;
26391;SDS011;14572;43.120;1.178;2023-07-02T08:05:09;2.13;;;1.20;;
26391;SDS011;14572;43.120;1.178;2023-07-02T08:07:36;1.40;;;1.10;;
26391;SDS011;14572;43.120;1.178;2023-07-02T08:10:04;2.25;;;1.00;;
26391;SDS011;14572;43.120;1.178;2023-07-02T08:12:34;1.73;;;1.30;;
26391;SDS011;14572;43.120;1.178;2023-07-02T08:15:02;1.55;;;1.23;;
26391;SDS011;14572;43.120;1.178;2023-07-02T08:17:29;1.25;;;1.13;;
26391;SDS011;14572;43.120;1.178;2023-07-02T08:19:57;1.33;;;1.17;;
26391;SDS011;14572;43.120;1.178;2023-07-02T08:22:24;3.15;;;1.38;;
26391;SDS011;14572;43.120;1.178;2023-07-02T08:24:51;1.10;;;1.00;;
26391;SDS011;14572;43.120;1.178;2023-07-02T08:27:19;1.50;;;1.15;;
26391;SDS011;14572;43.120;1.178;2023-07-02T08:29:48;1.20;;;1.00;;
26391;SDS011;14572;43.120;1.178;2023-07-02T08:32:15;2.45;;;1.10;;
26391;SDS011;14572;43.120;1.178;2023-07-02T08:34:43;1.38;;;1.20;;
26391;SDS011;14572;43.120;1.178;2023-07-02T08:37:10;4.00;;;1.10;;
26391;SDS011;14572;43.120;1.178;2023-07-02T08:39:38;1.90;;;1.10;;
26391;SDS011;14572;43.120;1.178;2023-07-02T08:42:06;1.50;;;1.00;;
26391;SDS011;14572;43.120;1.178;2023-07-02T08:44:33;1.50;;;1.40;;
26391;SDS011;14572;43.120;1.178;2023-07-02T08:49:47;2.20;;;0.95;;
26391;SDS011;14572;43.120;1.178;2023-07-02T08:52:50;0.93;;;0.93;;
26391;SDS011;14572;43.120;1.178;2023-07-02T08:55:19;1.00;;;1.00;;
26391;SDS011;14572;43.120;1.178;2023-07-02T08:57:49;1.33;;;0.93;;
26391;SDS011;14572;43.120;1.178;2023-07-02T09:00:18;3.17;;;1.20;;
26391;SDS011;14572;43.120;1.178;2023-07-02T09:02:46;0.90;;;0.90;;
26391;SDS011;14572;43.120;1.178;2023-07-02T09:07:53;0.90;;;0.90;;
26391;SDS011;14572;43.120;1.178;2023-07-02T09:10:30;0.95;;;0.73;;
26391;SDS011;14572;43.120;1.178;2023-07-02T09:13:04;3.25;;;0.80;;
26391;SDS011;14572;43.120;1.178;2023-07-02T09:15:36;0.90;;;0.70;;
26391;SDS011;14572;43.120;1.178;2023-07-02T09:18:13;0.80;;;0.63;;
26391;SDS011;14572;43.120;1.178;2023-07-02T09:20:55;1.00;;;0.88;;
26391;SDS011;14572;43.120;1.178;2023-07-02T09:23:31;1.75;;;0.88;;
26391;SDS011;14572;43.120;1.178;2023-07-02T09:26:00;1.50;;;1.00;;
26391;SDS011;14572;43.120;1.178;2023-07-02T09:28:28;0.70;;;0.70;;
26391;SDS011;14572;43.120;1.178;2023-07-02T09:31:04;1.85;;;0.80;;
26391;SDS011;14572;43.120;1.178;2023-07-02T09:33:32;1.23;;;0.70;;
26391;SDS011;14572;43.120;1.178;2023-07-02T09:35:59;1.35;;;0.80;;
26391;SDS011;14572;43.120;1.178;2023-07-02T09:38:28;1.65;;;0.80;;
26391;SDS011;14572;43.120;1.178;2023-07-02T09:40:55;0.90;;;0.40;;
26391;SDS011;14572;43.120;1.178;2023-07-02T09:43:23;1.83;;;0.40;;
26391;SDS011;14572;43.120;1.178;2023-07-02T09:45:52;1.05;;;0.50;;
26391;SDS011;14572;43.120;1.178;2023-07-02T09:51:43;0.50;;;0.40;;
26391;SDS011;14572;43.120;1.178;2023-07-02T09:57:09;1.52;;;0.40;;
26391;SDS011;14572;43.120;1.178;2023-07-02T10:08:30;1.00;;;0.32;;
26391;SDS011;14572;43.120;1.178;2023-07-02T10:11:06;2.85;;;0.30;;
26391;SDS011;14572;43.120;1.178;2023-07-02T10:13:38;0.65;;;0.32;;
26391;SDS011;14572;43.120;1.178;2023-07-02T10:16:06;0.77;;;0.40;;
26391;SDS011;14572;43.120;1.178;2023-07-02T10:18:35;3.10;;;0.98;;
26391;SDS011;14572;43.120;1.178;2023-07-02T10:21:12;0.50;;;0.50;;
26391;SDS011;14572;43.120;1.178;2023-07-02T10:23:42;7.85;;;1.38;;
26391;SDS011;14572;43.120;1.178;2023-07-02T10:29:33;9.45;;;1.80;;
26391;SDS011;14572;43.120;1.178;2023-07-02T10:32:01;10.82;;;1.90;;
26391;SDS011;14572;43.120;1.178;2023-07-02T10:34:38;15.73;;;2.85;;
26391;SDS011;14572;43.120;1.178;2023-07-02T10:37:06;3.67;;;0.88;;
26391;SDS011;14572;43.120;1.178;2023-07-02T10:39:34;0.65;;;0.50;;
26391;SDS011;14572;43.120;1.178;2023-07-02T10:42:06;0.60;;;0.50;;
26391;SDS011;14572;43.120;1.178;2023-07-02T10:44:38;0.47;;;0.40;;
26391;SDS011;14572;43.120;1.178;2023-07-02T10:47:13;0.80;;;0.57;;
26391;SDS011;14572;43.120;1.178;2023-07-02T10:49:41;0.85;;;0.70;;
26391;SDS011;14572;43.120;1.178;2023-07-02T10:52:08;0.65;;;0.45;;
26391;SDS011;14572;43.120;1.178;2023-07-02T10:54:38;1.25;;;0.68;;
26391;SDS011;14572;43.120;1.178;2023-07-02T10:57:07;0.70;;;0.45;;
26391;SDS011;14572;43.120;1.178;2023-07-02T10:59:35;1.10;;;0.85;;
26391;SDS011;14572;43.120;1.178;2023-07-02T11:02:03;1.80;;;0.60;;
26391;SDS011;14572;43.120;1.178;2023-07-02T11:04:31;0.50;;;0.50;;
26391;SDS011;14572;43.120;1.178;2023-07-02T11:06:59;0.57;;;0.43;;
26391;SDS011;14572;43.120;1.178;2023-07-02T11:09:26;2.38;;;0.45;;
26391;SDS011;14572;43.120;1.178;2023-07-02T11:11:54;2.28;;;0.20;;
26391;SDS011;14572;43.120;1.178;2023-07-02T11:14:28;0.30;;;0.30;;
26391;SDS011;14572;43.120;1.178;2023-07-02T11:16:57;1.85;;;0.43;;
26391;SDS011;14572;43.120;1.178;2023-07-02T11:19:27;0.30;;;0.30;;
26391;SDS011;14572;43.120;1.178;2023-07-02T11:21:54;0.93;;;0.40;;
26391;SDS011;14572;43.120;1.178;2023-07-02T11:24:32;0.75;;;0.45;;
26391;SDS011;14572;43.120;1.178;2023-07-02T11:27:00;1.00;;;0.40;;
26391;SDS011;14572;43.120;1.178;2023-07-02T11:29:29;1.00;;;0.25;;
26391;SDS011;14572;43.120;1.178;2023-07-02T11:32:05;0.40;;;0.40;;
26391;SDS011;14572;43.120;1.178;2023-07-02T11:34:34;0.73;;;0.47;;
26391;SDS011;14572;43.120;1.178;2023-07-02T11:37:02;0.90;;;0.60;;
26391;SDS011;14572;43.120;1.178;2023-07-02T11:39:29;1.77;;;0.50;;
26391;SDS011;14572;43.120;1.178;2023-07-02T11:41:57;1.05;;;0.40;;
26391;SDS011;14572;43.120;1.178;2023-07-02T11:44:24;1.02;;;0.32;;
26391;SDS011;14572;43.120;1.178;2023-07-02T11:46:51;0.28;;;0.22;;
26391;SDS011;14572;43.120;1.178;2023-07-02T11:49:23;0.38;;;0.38;;
26391;SDS011;14572;43.120;1.178;2023-07-02T11:51:50;1.27;;;0.43;;
26391;SDS011;14572;43.120;1.178;2023-07-02T11:54:18;2.08;;;0.40;;
26391;SDS011;14572;43.120;1.178;2023-07-02T11:56:45;0.38;;;0.30;;
26391;SDS011;14572;43.120;1.178;2023-07-02T11:59:12;0.30;;;0.30;;
26391;SDS011;14572;43.120;1.178;2023-07-02T12:01:40;0.60;;;0.40;;
26391;SDS011;14572;43.120;1.178;2023-07-02T12:04:09;0.40;;;0.38;;
26391;SDS011;14572;43.120;1.178;2023-07-02T12:06:39;0.68;;;0.32;;
26391;SDS011;14572;43.120;1.178;2023-07-02T12:09:08;1.20;;;0.40;;
26391;SDS011;14572;43.120;1.178;2023-07-02T12:11:36;0.35;;;0.25;;
26391;SDS011;14572;43.120;1.178;2023-07-02T12:14:07;0.60;;;0.40;;
26391;SDS011;14572;43.120;1.178;2023-07-02T12:16:34;0.40;;;0.22;;
26391;SDS011;14572;43.120;1.178;2023-07-02T12:19:01;0.73;;;0.30;;
26391;SDS011;14572;43.120;1.178;2023-07-02T12:21:28;0.50;;;0.20;;
26391;SDS011;14572;43.120;1.178;2023-07-02T12:23:57;2.22;;;0.60;;
26391;SDS011;14572;43.120;1.178;2023-07-02T12:26:24;0.70;;;0.40;;
26391;SDS011;14572;43.120;1.178;2023-07-02T12:28:51;0.90;;;0.65;;
26391;SDS011;14572;43.120;1.178;2023-07-02T12:31:18;1.02;;;0.50;;
26391;SDS011;14572;43.120;1.178;2023-07-02T12:33:46;1.15;;;0.45;;
26391;SDS011;14572;43.120;1.178;2023-07-02T12:36:13;0.80;;;0.60;;
26391;SDS011;14572;43.120;1.178;2023-07-02T12:38:40;0.60;;;0.40;;
26391;SDS011;14572;43.120;1.178;2023-07-02T12:41:11;0.30;;;0.30;;
26391;SDS011;14572;43.120;1.178;2023-07-02T12:43:38;0.60;;;0.30;;
26391;SDS011;14572;43.120;1.178;2023-07-02T12:46:05;0.40;;;0.40;;
26391;SDS011;14572;43.120;1.178;2023-07-02T12:48:33;2.97;;;0.40;;
26391;SDS011;14572;43.120;1.178;2023-07-02T12:51:00;0.38;;;0.38;;
26391;SDS011;14572;43.120;1.178;2023-07-02T12:53:27;0.45;;;0.45;;
26391;SDS011;14572;43.120;1.178;2023-07-02T12:55:55;1.75;;;0.43;;
26391;SDS011;14572;43.120;1.178;2023-07-02T12:58:24;0.88;;;0.50;;
26391;SDS011;14572;43.120;1.178;2023-07-02T13:00:51;2.22;;;0.50;;
26391;SDS011;14572;43.120;1.178;2023-07-02T13:03:20;0.20;;;0.20;;
26391;SDS011;14572;43.120;1.178;2023-07-02T13:05:48;0.70;;;0.43;;
26391;SDS011;14572;43.120;1.178;2023-07-02T13:08:15;2.05;;;0.40;;
26391;SDS011;14572;43.120;1.178;2023-07-02T13:10:42;0.55;;;0.20;;
26391;SDS011;14572;43.120;1.178;2023-07-02T13:13:09;0.70;;;0.47;;
26391;SDS011;14572;43.120;1.178;2023-07-02T13:15:38;0.30;;;0.30;;
26391;SDS011;14572;43.120;1.178;2023-07-02T13:18:06;0.70;;;0.50;;
26391;SDS011;14572;43.120;1.178;2023-07-02T13:20:33;0.40;;;0.40;;
26391;SDS011;14572;43.120;1.178;2023-07-02T13:23:00;0.65;;;0.38;;
26391;SDS011;14572;43.120;1.178;2023-07-02T13:25:29;0.68;;;0.40;;
26391;SDS011;14572;43.120;1.178;2023-07-02T13:27:57;0.30;;;0.20;;
26391;SDS011;14572;43.120;1.178;2023-07-02T13:30:24;13.00;;;0.90;;
26391;SDS011;14572;43.120;1.178;2023-07-02T13:32:55;3.10;;;0.40;;
26391;SDS011;14572;43.120;1.178;2023-07-02T13:35:22;5.35;;;0.40;;
26391;SDS011;14572;43.120;1.178;2023-07-02T13:37:49;0.77;;;0.38;;
26391;SDS011;14572;43.120;1.178;2023-07-02T13:40:16;0.93;;;0.50;;
26391;SDS011;14572;43.120;1.178;2023-07-02T13:42:46;0.60;;;0.40;;
26391;SDS011;14572;43.120;1.178;2023-07-02T13:45:13;0.50;;;0.30;;
26391;SDS011;14572;43.120;1.178;2023-07-02T13:47:40;0.73;;;0.30;;
26391;SDS011;14572;43.120;1.178;2023-07-02T13:50:09;25.98;;;2.30;;
26391;SDS011;14572;43.120;1.178;2023-07-02T13:52:37;4.13;;;0.55;;
26391;SDS011;14572;43.120;1.178;2023-07-02T13:55:04;8.18;;;0.45;;
26391;SDS011;14572;43.120;1.178;2023-07-02T13:57:32;0.35;;;0.28;;
26391;SDS011;14572;43.120;1.178;2023-07-02T14:00:01;0.70;;;0.20;;
26391;SDS011;14572;43.120;1.178;2023-07-02T14:02:29;8.55;;;0.57;;
26391;SDS011;14572;43.120;1.178;2023-07-02T14:04:57;4.97;;;0.63;;
26391;SDS011;14572;43.120;1.178;2023-07-02T14:07:24;2.10;;;0.47;;
26391;SDS011;14572;43.120;1.178;2023-07-02T14:09:51;0.40;;;0.40;;
26391;SDS011;14572;43.120;1.178;2023-07-02T14:12:20;0.85;;;0.40;;
26391;SDS011;14572;43.120;1.178;2023-07-02T14:14:47;0.63;;;0.35;;
26391;SDS011;14572;43.120;1.178;2023-07-02T14:17:16;0.45;;;0.22;;
26391;SDS011;14572;43.120;1.178;2023-07-02T14:19:43;0.85;;;0.40;;
26391;SDS011;14572;43.120;1.178;2023-07-02T14:22:10;1.00;;;0.30;;
26391;SDS011;14572;43.120;1.178;2023-07-02T14:24:37;0.30;;;0.30;;
26391;SDS011;14572;43.120;1.178;2023-07-02T14:27:05;1.75;;;0.43;;
26391;SDS011;14572;43.120;1.178;2023-07-02T14:29:32;4.50;;;0.43;;
26391;SDS011;14572;43.120;1.178;2023-07-02T14:31:59;1.38;;;0.40;;
26391;SDS011;14572;43.120;1.178;2023-07-02T14:34:28;1.20;;;0.40;;
26391;SDS011;14572;43.120;1.178;2023-07-02T14:36:55;0.30;;;0.30;;
26391;SDS011;14572;43.120;1.178;2023-07-02T14:39:22;0.40;;;0.30;;
26391;SDS011;14572;43.120;1.178;2023-07-02T14:41:49;1.55;;;0.32;;
26391;SDS011;14572;43.120;1.178;2023-07-02T14:44:17;1.58;;;0.50;;
26391;SDS011;14572;43.120;1.178;2023-07-02T14:46:44;0.95;;;0.40;;
26391;SDS011;14572;43.120;1.178;2023-07-02T14:49:11;0.30;;;0.30;;
26391;SDS011;14572;43.120;1.178;2023-07-02T14:51:39;2.25;;;0.32;;
26391;SDS011;14572;43.120;1.178;2023-07-02T14:54:07;0.60;;;0.50;;
26391;SDS011;14572;43.120;1.178;2023-07-02T14:56:35;0.40;;;0.30;;
26391;SDS011;14572;43.120;1.178;2023-07-02T14:59:03;1.90;;;0.25;;
26391;SDS011;14572;43.120;1.178;2023-07-02T15:01:32;0.50;;;0.40;;
26391;SDS011;14572;43.120;1.178;2023-07-02T15:03:59;1.02;;;0.30;;
26391;SDS011;14572;43.120;1.178;2023-07-02T15:06:26;0.75;;;0.30;;
26391;SDS011;14572;43.120;1.178;2023-07-02T15:08:54;0.95;;;0.30;;
26391;SDS011;14572;43.120;1.178;2023-07-02T15:11:22;0.70;;;0.40;;
26391;SDS011;14572;43.120;1.178;2023-07-02T15:13:49;1.65;;;0.35;;
26391;SDS011;14572;43.120;1.178;2023-07-02T15:16:16;1.50;;;0.40;;
26391;SDS011;14572;43.120;1.178;2023-07-02T15:18:45;1.55;;;0.30;;
26391;SDS011;14572;43.120;1.178;2023-07-02T15:21:12;1.73;;;0.40;;